Time;durP1;ratioP1;P1;durP2;ratioP2;P2;SDS_P1;SDS_P2;PMS_P1;PMS_P2;Temp;Humidity;BMP_temperature;BMP_pressure;BME280_temperature;BME280_humidity;BME280_pressure;Samples;Min_cycle;Max_cycle;Signal;HPM_P1;HPM_P2
2021/03/07 00:02:12;;;;;;;4.10;3.70;;;0.50;80.70;;;;;;5087608;28;20208;-77
2021/03/07 00:04:38;;;;;;;4.43;4.00;;;0.50;80.80;;;;;;5071381;28;20227;-78
2021/03/07 00:07:04;;;;;;;4.97;4.30;;;0.50;80.60;;;;;;5085797;28;20205;-77
2021/03/07 00:09:29;;;;;;;4.20;3.80;;;0.40;80.10;;;;;;5083529;28;20205;-77
2021/03/07 00:11:55;;;;;;;4.37;3.97;;;0.40;80.30;;;;;;5078158;28;20182;-77
2021/03/07 00:14:20;;;;;;;4.50;3.97;;;0.50;80.00;;;;;;5069025;28;20563;-75
2021/03/07 00:16:46;;;;;;;4.80;4.27;;;0.50;79.70;;;;;;5089061;28;20533;-76
2021/03/07 00:19:12;;;;;;;5.73;4.17;;;0.60;79.60;;;;;;5089182;28;20642;-76
2021/03/07 00:21:38;;;;;;;5.80;4.57;;;0.50;80.50;;;;;;5080923;28;20437;-76
2021/03/07 00:24:04;;;;;;;4.60;4.20;;;0.50;80.50;;;;;;5086530;28;20200;-76
2021/03/07 00:26:29;;;;;;;4.83;4.43;;;0.50;80.00;;;;;;5088286;28;20214;-77
2021/03/07 00:28:55;;;;;;;4.17;3.87;;;0.50;81.50;;;;;;5069220;28;20445;-77
2021/03/07 00:31:21;;;;;;;5.23;3.97;;;0.60;81.10;;;;;;5088602;28;20181;-75
2021/03/07 00:33:46;;;;;;;4.63;3.73;;;0.60;80.10;;;;;;5088191;28;20567;-77
2021/03/07 00:36:12;;;;;;;4.70;4.10;;;0.50;80.70;;;;;;5088574;28;20699;-77
2021/03/07 00:38:38;;;;;;;4.63;3.93;;;0.40;82.40;;;;;;5088700;28;20209;-77
2021/03/07 00:41:03;;;;;;;4.80;3.77;;;0.50;80.90;;;;;;5055396;28;20201;-77
2021/03/07 00:43:29;;;;;;;4.33;3.93;;;0.50;82.40;;;;;;5077295;28;20181;-76
2021/03/07 00:45:54;;;;;;;4.67;3.80;;;0.50;81.10;;;;;;5088394;28;20234;-77
2021/03/07 00:48:20;;;;;;;4.50;3.70;;;0.30;81.80;;;;;;5088145;28;20620;-77
2021/03/07 00:50:45;;;;;;;4.53;3.83;;;0.30;82.10;;;;;;5088311;28;20689;-78
2021/03/07 00:53:11;;;;;;;4.13;3.73;;;0.30;82.70;;;;;;5088120;28;20523;-79
2021/03/07 00:55:36;;;;;;;4.23;3.83;;;0.30;83.40;;;;;;5088541;28;20192;-78
2021/03/07 00:58:03;;;;;;;3.40;3.10;;;0.20;83.30;;;;;;5085684;28;20220;-77
2021/03/07 01:00:30;;;;;;;4.30;3.97;;;0.20;83.50;;;;;;5070241;28;20181;-77
2021/03/07 01:02:56;;;;;;;3.90;3.50;;;0.10;83.60;;;;;;5086296;28;20434;-76
2021/03/07 01:05:27;;;;;;;4.17;3.77;;;0.20;84.20;;;;;;5087833;28;20453;-77
2021/03/07 01:07:53;;;;;;;4.20;3.40;;;0.20;84.60;;;;;;5086947;28;21792;-76
2021/03/07 01:10:24;;;;;;;4.20;3.47;;;0.20;85.50;;;;;;5088359;28;20502;-77
2021/03/07 01:12:50;;;;;;;3.83;3.43;;;0.20;85.10;;;;;;5068816;28;20192;-76
2021/03/07 01:15:21;;;;;;;3.63;3.33;;;0.20;86.10;;;;;;5087919;28;20610;-75
2021/03/07 01:17:46;;;;;;;4.47;4.10;;;0.30;85.90;;;;;;5087029;28;20447;-77
2021/03/07 01:20:16;;;;;;;3.83;3.53;;;0.20;85.30;;;;;;5084588;28;20422;-77
2021/03/07 01:22:41;;;;;;;3.93;3.53;;;0.20;86.70;;;;;;5073939;28;20613;-78
2021/03/07 01:25:08;;;;;;;4.97;3.90;;;0.20;86.40;;;;;;5080981;28;20526;-77
2021/03/07 01:27:33;;;;;;;3.83;3.53;;;0.20;86.30;;;;;;5086537;28;20216;-77
2021/03/07 01:29:59;;;;;;;5.37;4.67;;;0.20;86.10;;;;;;5087440;28;20414;-77
2021/03/07 01:32:25;;;;;;;3.97;3.40;;;0.30;85.70;;;;;;5087232;28;20796;-76
2021/03/07 01:34:51;;;;;;;4.47;3.00;;;0.30;85.40;;;;;;5087668;28;20264;-78
2021/03/07 01:37:17;;;;;;;3.53;3.20;;;0.30;85.90;;;;;;5087247;28;20533;-76
2021/03/07 01:39:42;;;;;;;3.60;3.13;;;0.30;85.80;;;;;;5085296;28;20711;-76
2021/03/07 01:42:12;;;;;;;4.10;3.70;;;0.30;86.10;;;;;;5087117;28;20566;-77
2021/03/07 01:44:38;;;;;;;4.00;3.23;;;0.30;85.70;;;;;;5086653;28;20185;-77
2021/03/07 01:47:05;;;;;;;4.10;3.70;;;0.30;86.10;;;;;;5086768;28;20470;-76
2021/03/07 01:49:31;;;;;;;3.30;3.00;;;0.40;84.90;;;;;;5086847;28;20224;-76
2021/03/07 01:51:57;;;;;;;3.40;3.10;;;0.30;84.40;;;;;;5087584;28;20449;-76
2021/03/07 01:54:22;;;;;;;4.00;3.60;;;0.30;84.90;;;;;;5081568;28;20423;-76
2021/03/07 01:56:52;;;;;;;3.80;3.33;;;0.40;84.50;;;;;;5066618;28;20438;-76
2021/03/07 01:59:21;;;;;;;4.60;3.73;;;0.40;83.60;;;;;;5086759;28;20318;-76
2021/03/07 02:01:48;;;;;;;3.83;3.10;;;0.50;83.30;;;;;;5085331;28;20423;-77
2021/03/07 02:04:15;;;;;;;3.87;3.30;;;0.50;82.80;;;;;;5087101;28;20426;-76
2021/03/07 02:06:41;;;;;;;4.67;3.60;;;0.60;82.60;;;;;;5086258;28;20463;-75
2021/03/07 02:09:07;;;;;;;3.57;3.27;;;0.60;81.90;;;;;;5080459;28;20970;-75
2021/03/07 02:11:33;;;;;;;4.63;3.63;;;0.60;82.50;;;;;;5068774;28;20969;-76
2021/03/07 02:14:01;;;;;;;3.57;3.20;;;0.60;81.50;;;;;;5084692;28;20439;-77
2021/03/07 02:16:27;;;;;;;4.27;3.60;;;0.60;81.50;;;;;;5086447;28;20428;-77
2021/03/07 02:18:54;;;;;;;4.40;4.00;;;0.70;81.20;;;;;;5084591;28;20443;-76
2021/03/07 02:21:44;;;;;;;4.13;3.73;;;0.70;80.60;;;;;;5074212;28;20485;-76
2021/03/07 02:24:12;;;;;;;4.33;3.90;;;0.70;80.10;;;;;;5072607;28;20928;-77
2021/03/07 02:26:49;;;;;;;3.30;3.00;;;0.70;79.70;;;;;;5085999;28;20531;-76
2021/03/07 02:29:18;;;;;;;6.27;3.77;;;0.80;79.70;;;;;;5085701;28;20431;-76
2021/03/07 02:31:47;;;;;;;4.73;3.77;;;0.70;80.10;;;;;;5086325;28;20437;-77
2021/03/07 02:34:31;;;;;;;3.20;2.87;;;0.80;80.10;;;;;;5086693;28;21716;-77
2021/03/07 02:37:00;;;;;;;3.60;3.30;;;0.80;80.40;;;;;;5086277;28;20411;-77
2021/03/07 02:39:29;;;;;;;4.30;3.90;;;0.70;81.30;;;;;;5060898;28;20837;-78
2021/03/07 02:41:58;;;;;;;4.00;3.40;;;0.70;82.40;;;;;;5086138;28;20427;-78
2021/03/07 02:44:26;;;;;;;4.53;4.13;;;0.70;81.60;;;;;;5080977;28;20435;-77
2021/03/07 02:46:53;;;;;;;3.97;3.60;;;0.60;81.30;;;;;;5079223;28;20470;-75
2021/03/07 02:49:20;;;;;;;7.03;3.60;;;0.70;82.50;;;;;;5083655;28;20439;-77
2021/03/07 02:51:48;;;;;;;3.90;3.60;;;0.60;82.20;;;;;;5068273;28;20834;-76
2021/03/07 02:54:17;;;;;;;4.10;3.47;;;0.60;82.00;;;;;;5085896;28;20937;-76
2021/03/07 02:56:47;;;;;;;3.80;3.50;;;0.50;81.90;;;;;;5083818;28;20423;-75
2021/03/07 02:59:14;;;;;;;3.67;3.30;;;0.40;82.40;;;;;;5081528;28;20522;-76
2021/03/07 03:01:41;;;;;;;4.20;3.80;;;0.40;82.40;;;;;;5084067;28;20431;-76
2021/03/07 03:04:09;;;;;;;3.80;3.60;;;0.50;83.50;;;;;;5085941;28;20501;-77
2021/03/07 03:06:41;;;;;;;3.80;3.40;;;0.50;83.40;;;;;;5079273;28;20593;-76
2021/03/07 03:09:09;;;;;;;4.00;3.60;;;0.40;82.80;;;;;;5079491;28;20450;-76
2021/03/07 03:11:37;;;;;;;4.00;3.70;;;0.30;82.20;;;;;;5067502;28;20451;-76
2021/03/07 03:14:06;;;;;;;4.00;3.60;;;0.30;83.30;;;;;;5065370;28;20427;-76
2021/03/07 03:16:33;;;;;;;3.80;3.50;;;0.30;84.50;;;;;;5085260;28;20427;-75
2021/03/07 03:19:04;;;;;;;5.07;3.67;;;0.30;85.10;;;;;;5084429;28;20826;-75
2021/03/07 03:21:30;;;;;;;5.17;4.77;;;0.20;86.10;;;;;;5077750;28;20431;-76
2021/03/07 03:23:56;;;;;;;5.17;4.07;;;0.00;86.40;;;;;;5083388;28;20856;-76
2021/03/07 03:26:23;;;;;;;5.57;5.03;;;0.00;86.80;;;;;;5085245;28;20471;-77
2021/03/07 03:28:51;;;;;;;6.33;5.50;;;0.00;87.00;;;;;;5084272;28;20443;-77
2021/03/07 03:31:17;;;;;;;5.63;3.83;;;0.10;86.20;;;;;;5069575;28;20427;-77
2021/03/07 03:33:42;;;;;;;4.17;3.77;;;0.10;86.00;;;;;;5089131;28;20431;-75
2021/03/07 03:36:08;;;;;;;3.40;3.20;;;0.10;87.20;;;;;;5071264;28;20458;-76
2021/03/07 03:38:55;;;;;;;3.60;3.30;;;0.10;86.00;;;;;;5089330;28;20219;-75
2021/03/07 03:41:22;;;;;;;4.37;3.97;;;0.00;87.30;;;;;;5076904;28;20559;-77
2021/03/07 03:43:51;;;;;;;3.70;3.40;;;0.00;87.40;;;;;;5089252;28;20532;-77
2021/03/07 03:46:19;;;;;;;4.33;3.97;;;-0.10;86.90;;;;;;5089567;28;20515;-76
2021/03/07 03:48:51;;;;;;;5.50;4.47;;;-0.10;86.80;;;;;;5070600;28;20447;-76
2021/03/07 03:51:19;;;;;;;4.67;4.17;;;-0.20;87.00;;;;;;5088931;28;20450;-76
2021/03/07 03:53:45;;;;;;;4.90;3.93;;;-0.20;86.90;;;;;;5089501;28;20865;-76
2021/03/07 03:56:14;;;;;;;4.30;3.90;;;-0.20;87.20;;;;;;5086680;28;20985;-77
2021/03/07 03:58:42;;;;;;;4.60;4.03;;;-0.20;87.50;;;;;;5089420;28;20495;-77
2021/03/07 04:01:10;;;;;;;4.63;4.20;;;-0.20;87.80;;;;;;5069919;28;20436;-77
2021/03/07 04:03:36;;;;;;;6.80;5.57;;;-0.20;88.40;;;;;;5070908;28;20436;-77
2021/03/07 04:06:03;;;;;;;4.40;3.67;;;-0.30;88.00;;;;;;5088536;28;20587;-74
2021/03/07 04:08:28;;;;;;;4.37;3.97;;;-0.30;88.40;;;;;;5082769;28;20446;-76
2021/03/07 04:10:57;;;;;;;5.73;5.13;;;-0.40;89.20;;;;;;5089109;28;20411;-76
2021/03/07 04:13:27;;;;;;;4.47;4.07;;;-0.40;89.30;;;;;;5079573;28;20185;-77
2021/03/07 04:15:55;;;;;;;5.07;4.67;;;-0.40;90.00;;;;;;5070497;28;20432;-77
2021/03/07 04:18:23;;;;;;;3.97;3.60;;;-0.40;90.00;;;;;;5086082;28;20462;-77
2021/03/07 04:20:49;;;;;;;4.23;3.93;;;-0.50;90.50;;;;;;5063308;28;20420;-77
2021/03/07 04:23:15;;;;;;;4.70;4.30;;;-0.50;90.90;;;;;;5086115;28;20537;-76
2021/03/07 04:25:41;;;;;;;5.27;3.87;;;-0.60;90.60;;;;;;5070499;28;20498;-77
2021/03/07 04:28:08;;;;;;;4.53;4.13;;;-0.60;90.90;;;;;;5087263;28;20204;-77
2021/03/07 04:30:34;;;;;;;5.30;4.40;;;-0.60;91.10;;;;;;5070313;28;20513;-76
2021/03/07 04:33:00;;;;;;;5.33;4.60;;;-0.60;90.80;;;;;;5080226;28;20485;-76
2021/03/07 04:35:27;;;;;;;4.13;3.83;;;-0.60;90.90;;;;;;5085269;28;20423;-75
2021/03/07 04:38:00;;;;;;;5.10;4.60;;;-0.60;90.50;;;;;;5088073;28;20462;-76
2021/03/07 04:40:26;;;;;;;7.17;3.87;;;-0.60;90.60;;;;;;5065106;28;20804;-76
2021/03/07 04:42:53;;;;;;;4.80;4.13;;;-0.70;90.70;;;;;;5087397;28;20429;-76
2021/03/07 04:45:19;;;;;;;4.27;3.90;;;-0.80;91.30;;;;;;5081421;28;20462;-77
2021/03/07 04:47:45;;;;;;;4.53;4.13;;;-0.90;91.60;;;;;;5088029;28;20427;-77
2021/03/07 04:50:12;;;;;;;5.70;4.30;;;-0.90;92.30;;;;;;5088132;28;20541;-76
2021/03/07 04:52:38;;;;;;;5.07;4.60;;;-1.00;93.40;;;;;;5088417;28;20165;-76
2021/03/07 04:55:05;;;;;;;5.63;4.50;;;-1.10;93.50;;;;;;5069801;28;21206;-76
2021/03/07 04:57:31;;;;;;;7.90;5.77;;;-1.10;94.60;;;;;;5085802;28;20435;-76
2021/03/07 04:59:57;;;;;;;6.63;5.53;;;-1.10;95.00;;;;;;5088245;28;20415;-76
2021/03/07 05:02:22;;;;;;;6.30;5.70;;;-1.00;95.40;;;;;;5086886;28;20188;-77
2021/03/07 05:04:48;;;;;;;6.43;5.83;;;-1.00;95.20;;;;;;5088169;28;20177;-77
2021/03/07 05:07:14;;;;;;;8.90;5.50;;;-1.10;95.60;;;;;;5065413;28;20601;-77
2021/03/07 05:09:39;;;;;;;7.27;5.60;;;-1.20;96.40;;;;;;5085358;28;20173;-77
2021/03/07 05:12:05;;;;;;;6.23;5.60;;;-1.30;96.20;;;;;;5075764;28;20699;-76
2021/03/07 05:14:31;;;;;;;5.87;5.30;;;-1.40;97.10;;;;;;5087448;28;20181;-76
2021/03/07 05:16:58;;;;;;;5.23;4.73;;;-1.50;97.70;;;;;;5087732;28;20965;-78
2021/03/07 05:19:24;;;;;;;6.00;5.40;;;-1.50;98.50;;;;;;5086842;28;20262;-76
2021/03/07 05:21:49;;;;;;;6.07;5.40;;;-1.50;98.90;;;;;;5060047;28;20896;-77
2021/03/07 05:24:15;;;;;;;6.00;5.50;;;-1.50;99.20;;;;;;5087100;28;20207;-78
2021/03/07 05:26:40;;;;;;;6.03;5.43;;;-1.40;99.30;;;;;;5068909;28;20749;-77
2021/03/07 05:29:06;;;;;;;6.03;5.30;;;-1.50;99.90;;;;;;5086807;28;20219;-77
2021/03/07 05:31:31;;;;;;;6.20;5.07;;;-1.60;99.90;;;;;;5069875;28;20177;-76
2021/03/07 05:33:57;;;;;;;6.27;5.57;;;-1.50;99.90;;;;;;5087307;28;20177;-77
2021/03/07 05:36:22;;;;;;;8.60;5.13;;;-1.60;99.90;;;;;;5087984;28;20185;-77
2021/03/07 05:38:48;;;;;;;5.77;5.20;;;-1.60;99.90;;;;;;5067830;28;20256;-77
2021/03/07 05:41:14;;;;;;;6.20;5.33;;;-1.40;99.40;;;;;;5068794;28;20184;-76
2021/03/07 05:43:40;;;;;;;5.27;4.70;;;-1.40;98.70;;;;;;5087881;28;20549;-77
2021/03/07 05:46:07;;;;;;;5.23;4.57;;;-1.40;99.00;;;;;;5086040;28;20746;-77
2021/03/07 05:48:33;;;;;;;5.20;4.70;;;-1.40;98.70;;;;;;5087245;28;20888;-76
2021/03/07 05:50:59;;;;;;;6.43;4.80;;;-1.30;99.00;;;;;;5087562;28;20503;-78
2021/03/07 05:53:25;;;;;;;7.70;4.87;;;-1.40;98.90;;;;;;5063849;28;20839;-78
2021/03/07 05:55:51;;;;;;;5.00;4.50;;;-1.40;98.50;;;;;;5077844;28;20681;-77
2021/03/07 05:58:17;;;;;;;5.53;5.00;;;-1.40;98.50;;;;;;5087054;28;20258;-77
2021/03/07 06:00:43;;;;;;;4.63;4.23;;;-1.20;98.70;;;;;;5088717;28;20427;-76
2021/03/07 06:03:09;;;;;;;5.60;5.10;;;-1.20;99.10;;;;;;5086227;28;20421;-76
2021/03/07 06:05:35;;;;;;;5.67;5.20;;;-1.10;99.20;;;;;;5087300;28;20215;-77
2021/03/07 06:08:01;;;;;;;5.73;5.13;;;-1.10;99.10;;;;;;5080232;28;20725;-77
2021/03/07 06:10:29;;;;;;;5.90;5.40;;;-1.20;99.30;;;;;;5087084;28;20870;-77
2021/03/07 06:13:13;;;;;;;5.90;5.33;;;-1.40;99.90;;;;;;5066642;28;20424;-76
2021/03/07 06:15:42;;;;;;;7.50;5.10;;;-1.60;99.90;;;;;;5087125;28;20426;-77
2021/03/07 06:18:13;;;;;;;4.60;4.20;;;-1.70;99.90;;;;;;5085348;28;20452;-77
2021/03/07 06:20:40;;;;;;;5.83;5.23;;;-1.70;99.90;;;;;;5062436;28;20923;-78
2021/03/07 06:23:07;;;;;;;5.20;4.77;;;-1.70;99.90;;;;;;5082944;28;20469;-76
2021/03/07 06:25:42;;;;;;;7.77;5.70;;;-1.50;99.90;;;;;;5086664;28;20732;-77
2021/03/07 06:28:25;;;;;;;6.63;5.10;;;-1.40;99.90;;;;;;5084892;28;20442;-77
2021/03/07 06:30:52;;;;;;;7.67;6.53;;;-1.40;99.90;;;;;;5086363;28;20407;-76
2021/03/07 06:33:32;;;;;;;8.20;6.73;;;-1.50;99.90;;;;;;5068169;28;20443;-77
2021/03/07 06:36:20;;;;;;;7.50;6.50;;;-1.60;99.90;;;;;;5086990;28;20466;-76
2021/03/07 06:39:00;;;;;;;9.37;7.73;;;-1.60;99.90;;;;;;5086130;28;20436;-77
2021/03/07 06:41:28;;;;;;;7.77;6.10;;;-1.60;99.90;;;;;;5074804;28;20439;-78
2021/03/07 06:44:12;;;;;;;8.73;6.93;;;-1.50;99.90;;;;;;5085323;28;20415;-78
2021/03/07 06:46:42;;;;;;;7.83;6.97;;;-1.60;99.90;;;;;;5086317;28;20455;-77
2021/03/07 06:49:29;;;;;;;8.77;7.47;;;-1.60;99.90;;;;;;5086087;28;20432;-77
2021/03/07 06:52:09;;;;;;;7.67;6.87;;;-1.50;99.90;;;;;;5086664;28;20509;-77
2021/03/07 06:54:34;;;;;;;9.90;7.67;;;-1.60;99.90;;;;;;5086978;28;20867;-77
2021/03/07 06:57:00;;;;;;;9.33;7.43;;;-1.60;99.90;;;;;;5066247;28;20447;-76
2021/03/07 06:59:26;;;;;;;7.67;6.70;;;-1.50;99.90;;;;;;5068454;28;20227;-77
2021/03/07 07:01:56;;;;;;;8.27;7.47;;;-1.50;99.90;;;;;;5066345;28;20181;-78
2021/03/07 07:04:24;;;;;;;9.63;7.80;;;-1.40;99.90;;;;;;5082226;28;20207;-77
2021/03/07 07:07:04;;;;;;;9.37;7.60;;;-1.40;99.90;;;;;;5088819;28;20538;-79
2021/03/07 07:09:30;;;;;;;8.37;7.40;;;-1.40;99.90;;;;;;5085964;28;20435;-76
2021/03/07 07:11:56;;;;;;;10.10;9.10;;;-1.30;99.90;;;;;;5090270;28;20495;-77
2021/03/07 07:14:40;;;;;;;10.83;8.40;;;-1.30;99.90;;;;;;5088930;28;20211;-77
2021/03/07 07:17:11;;;;;;;7.77;7.03;;;-1.20;99.90;;;;;;5069762;28;20176;-77
2021/03/07 07:19:38;;;;;;;8.53;7.73;;;-1.10;99.90;;;;;;5089395;28;20419;-77
2021/03/07 07:22:05;;;;;;;7.93;7.10;;;-1.10;99.90;;;;;;5094536;28;20407;-78
2021/03/07 07:24:31;;;;;;;7.10;6.40;;;-0.90;99.90;;;;;;5097359;28;20438;-77
2021/03/07 07:26:57;;;;;;;7.80;7.10;;;-0.90;99.90;;;;;;5096465;28;20500;-77
2021/03/07 07:29:24;;;;;;;7.87;7.10;;;-0.80;99.90;;;;;;5097531;28;20439;-76
2021/03/07 07:32:00;;;;;;;7.57;6.90;;;-0.70;99.90;;;;;;5097274;28;20211;-76
2021/03/07 07:34:30;;;;;;;7.30;6.53;;;-0.50;99.90;;;;;;5082286;28;20478;-77
2021/03/07 07:37:33;;;;;;;7.10;6.50;;;-0.40;99.90;;;;;;5091728;28;20456;-76
2021/03/07 07:39:59;;;;;;;8.43;6.53;;;-0.20;99.90;;;;;;4987675;28;20991;-77
2021/03/07 07:42:34;;;;;;;6.80;6.07;;;-0.20;99.90;;;;;;4989256;28;20786;-76
2021/03/07 07:45:09;;;;;;;7.40;6.80;;;-0.10;99.90;;;;;;4972582;28;20456;-77
2021/03/07 07:47:41;;;;;;;6.87;6.27;;;0.10;99.90;;;;;;4972853;28;20546;-77
2021/03/07 07:50:30;;;;;;;10.87;6.80;;;0.20;99.90;;;;;;4988547;28;20430;-77
2021/03/07 07:52:58;;;;;;;8.50;7.43;;;0.30;99.90;;;;;;4989584;28;20453;-77
2021/03/07 07:55:42;;;;;;;9.40;7.37;;;0.40;99.90;;;;;;4988818;28;20459;-77
2021/03/07 07:58:08;;;;;;;8.30;6.97;;;0.50;99.90;;;;;;4982616;28;20436;-77
2021/03/07 08:00:48;;;;;;;8.70;7.80;;;0.60;99.90;;;;;;4987742;28;20708;-78
2021/03/07 08:03:30;;;;;;;7.77;7.07;;;0.80;99.90;;;;;;4986637;28;20200;-78
2021/03/07 08:05:56;;;;;;;8.10;7.30;;;0.90;99.90;;;;;;4986771;28;20514;-77
2021/03/07 08:08:36;;;;;;;7.10;6.40;;;0.90;99.90;;;;;;4978375;28;20447;-78
2021/03/07 08:11:06;;;;;;;7.13;6.43;;;1.10;99.90;;;;;;4970979;28;20430;-77
2021/03/07 08:13:35;;;;;;;8.40;7.10;;;1.20;99.90;;;;;;4969593;28;20439;-75
2021/03/07 08:16:02;;;;;;;6.57;6.07;;;1.30;99.80;;;;;;5003059;28;20424;-76
2021/03/07 08:18:47;;;;;;;6.90;6.27;;;1.40;99.00;;;;;;5062921;28;20454;-75
2021/03/07 08:21:14;;;;;;;7.33;6.63;;;1.50;98.40;;;;;;5081382;28;20586;-76
2021/03/07 08:23:56;;;;;;;7.67;6.90;;;1.60;97.80;;;;;;5086749;28;20453;-77
2021/03/07 08:26:23;;;;;;;7.43;6.70;;;1.70;98.00;;;;;;5073776;28;20720;-78
2021/03/07 08:28:48;;;;;;;8.03;6.30;;;1.90;97.90;;;;;;5069369;28;20435;-78
2021/03/07 08:31:20;;;;;;;8.60;6.67;;;1.90;97.70;;;;;;5089297;28;20498;-77
2021/03/07 08:33:46;;;;;;;7.20;6.47;;;2.10;97.20;;;;;;5070914;28;20491;-77
2021/03/07 08:36:26;;;;;;;6.50;5.90;;;2.20;96.70;;;;;;5088720;28;20423;-75
2021/03/07 08:38:54;;;;;;;7.50;6.80;;;2.40;95.90;;;;;;5078033;28;20975;-76
2021/03/07 08:41:26;;;;;;;7.50;6.40;;;2.50;96.00;;;;;;5076138;28;20455;-75
2021/03/07 08:43:57;;;;;;;7.07;6.37;;;2.60;95.20;;;;;;5087700;28;20629;-76
2021/03/07 08:46:49;;;;;;;6.83;6.10;;;2.60;94.40;;;;;;5075990;28;20467;-78
2021/03/07 08:49:25;;;;;;;6.07;5.13;;;2.60;93.70;;;;;;5063658;28;20488;-77
2021/03/07 08:51:58;;;;;;;6.77;5.33;;;2.70;93.50;;;;;;5088673;28;20483;-78
2021/03/07 08:54:25;;;;;;;6.13;5.53;;;2.80;93.30;;;;;;5085826;28;20934;-78
2021/03/07 08:56:51;;;;;;;7.23;6.53;;;2.90;92.80;;;;;;5086290;28;20449;-78
2021/03/07 08:59:23;;;;;;;6.40;5.50;;;3.00;92.80;;;;;;5088587;28;20453;-77
2021/03/07 09:01:49;;;;;;;7.40;5.63;;;3.10;92.30;;;;;;5087209;28;20427;-77
2021/03/07 09:04:15;;;;;;;7.17;6.47;;;3.20;92.10;;;;;;5088346;28;20415;-77
2021/03/07 09:06:46;;;;;;;7.30;6.10;;;3.30;92.00;;;;;;5088198;28;20963;-77
2021/03/07 09:09:12;;;;;;;6.70;6.10;;;3.50;92.00;;;;;;5064322;28;20193;-76
2021/03/07 09:11:50;;;;;;;6.03;5.43;;;3.60;91.60;;;;;;5088154;28;20426;-76
2021/03/07 09:14:31;;;;;;;5.97;5.37;;;3.70;90.90;;;;;;5068520;28;20488;-76
2021/03/07 09:16:58;;;;;;;5.50;5.00;;;3.90;90.50;;;;;;5085384;28;20423;-76
2021/03/07 09:19:35;;;;;;;6.47;5.03;;;3.90;89.30;;;;;;5068593;28;20454;-76
2021/03/07 09:22:11;;;;;;;7.60;5.17;;;4.00;85.80;;;;;;5075369;28;20503;-75
2021/03/07 09:24:37;;;;;;;7.20;6.50;;;4.10;85.20;;;;;;5087624;28;20492;-75
2021/03/07 09:27:12;;;;;;;6.13;5.57;;;4.20;85.00;;;;;;5086033;28;20557;-76
2021/03/07 09:29:57;;;;;;;6.50;5.40;;;4.30;83.00;;;;;;5068920;28;20470;-76
2021/03/07 09:32:43;;;;;;;5.67;5.17;;;4.30;82.40;;;;;;5085874;28;20434;-76
2021/03/07 09:35:36;;;;;;;5.00;4.60;;;4.30;82.20;;;;;;5086776;28;20946;-74
2021/03/07 09:38:08;;;;;;;5.63;5.13;;;4.40;80.90;;;;;;5081718;28;20519;-76
2021/03/07 09:40:41;;;;;;;5.90;4.70;;;4.50;80.50;;;;;;5085629;28;20894;-77
2021/03/07 09:43:12;;;;;;;5.77;5.27;;;4.50;79.60;;;;;;5087578;28;20415;-77
2021/03/07 09:45:43;;;;;;;4.60;4.20;;;4.60;77.60;;;;;;5067895;28;20458;-76
2021/03/07 09:48:09;;;;;;;5.20;4.80;;;4.70;77.70;;;;;;5087053;28;20526;-77
2021/03/07 09:50:35;;;;;;;4.77;4.37;;;4.70;77.60;;;;;;5087428;28;20428;-76
2021/03/07 09:53:01;;;;;;;5.37;4.87;;;4.70;75.80;;;;;;5087200;28;20516;-77
2021/03/07 09:55:33;;;;;;;6.97;4.53;;;4.70;76.70;;;;;;5087610;28;20203;-76
2021/03/07 09:58:07;;;;;;;4.77;4.37;;;4.90;77.20;;;;;;5084883;28;20502;-76
2021/03/07 10:00:34;;;;;;;5.07;4.60;;;4.90;74.70;;;;;;5069012;28;20434;-76
2021/03/07 10:03:01;;;;;;;4.90;4.50;;;5.10;74.00;;;;;;5085781;28;20423;-77
2021/03/07 10:05:27;;;;;;;4.53;4.13;;;5.10;73.80;;;;;;5086858;28;20918;-76
2021/03/07 10:07:52;;;;;;;4.50;4.10;;;5.20;72.70;;;;;;5062084;28;20440;-76
2021/03/07 10:10:21;;;;;;;5.33;4.27;;;5.20;70.30;;;;;;5087006;28;20729;-75
2021/03/07 10:12:52;;;;;;;6.00;4.43;;;5.30;70.30;;;;;;5067615;28;20189;-76
2021/03/07 10:15:33;;;;;;;4.37;4.00;;;5.40;70.60;;;;;;5086632;28;20499;-77
2021/03/07 10:18:16;;;;;;;5.77;4.57;;;5.40;69.50;;;;;;5085130;28;20449;-77
2021/03/07 10:20:47;;;;;;;4.70;4.30;;;5.40;68.40;;;;;;5071786;28;20415;-76
2021/03/07 10:23:13;;;;;;;4.63;4.30;;;5.50;67.90;;;;;;5084650;28;20439;-76
2021/03/07 10:25:46;;;;;;;5.03;4.60;;;5.40;69.00;;;;;;5086672;28;20432;-76
2021/03/07 10:28:28;;;;;;;4.00;3.60;;;5.50;68.10;;;;;;5085388;28;20443;-76
2021/03/07 10:31:25;;;;;;;4.73;4.30;;;5.50;64.90;;;;;;5083002;28;20498;-75
2021/03/07 10:33:54;;;;;;;5.27;4.10;;;5.60;66.90;;;;;;4989962;28;20947;-76
2021/03/07 10:36:20;;;;;;;5.10;4.67;;;5.80;66.60;;;;;;4983368;28;20721;-75
2021/03/07 10:38:49;;;;;;;5.60;5.10;;;5.80;64.10;;;;;;4979033;28;20959;-76
2021/03/07 10:41:22;;;;;;;4.53;4.13;;;5.80;64.40;;;;;;4995293;28;20434;-77
2021/03/07 10:43:52;;;;;;;4.57;4.07;;;5.80;64.50;;;;;;4995615;28;20439;-76
2021/03/07 10:46:24;;;;;;;4.70;4.10;;;5.90;65.60;;;;;;4995675;28;20497;-77
2021/03/07 10:48:52;;;;;;;4.67;4.17;;;5.90;64.10;;;;;;4995778;28;20451;-77
2021/03/07 10:51:18;;;;;;;4.73;4.33;;;6.00;65.30;;;;;;4996057;28;20439;-77
2021/03/07 10:53:44;;;;;;;4.87;4.43;;;6.20;65.00;;;;;;4980191;28;20422;-76
2021/03/07 10:56:09;;;;;;;4.80;4.40;;;6.30;64.50;;;;;;4978128;28;20987;-77
2021/03/07 10:58:35;;;;;;;4.80;4.40;;;6.40;64.40;;;;;;4996099;28;20223;-77
2021/03/07 11:01:00;;;;;;;5.17;4.67;;;6.40;63.60;;;;;;4995527;28;20206;-76
2021/03/07 11:03:26;;;;;;;5.73;4.50;;;6.30;64.10;;;;;;4996248;28;20207;-75
2021/03/07 11:05:51;;;;;;;4.80;4.40;;;6.50;64.70;;;;;;4980177;28;20215;-76
2021/03/07 11:08:17;;;;;;;7.50;4.80;;;6.40;64.30;;;;;;4995354;28;20309;-76
2021/03/07 11:10:42;;;;;;;4.73;4.33;;;6.60;63.60;;;;;;5054400;28;20538;-77
2021/03/07 11:13:08;;;;;;;4.30;3.90;;;6.50;63.50;;;;;;5084261;28;20277;-75
2021/03/07 11:15:34;;;;;;;6.53;5.03;;;6.60;63.00;;;;;;5086166;28;20192;-76
2021/03/07 11:17:59;;;;;;;5.13;4.63;;;6.60;61.20;;;;;;5085278;28;20270;-76
2021/03/07 11:20:25;;;;;;;4.07;3.77;;;6.70;60.30;;;;;;5082331;28;20186;-77
2021/03/07 11:22:50;;;;;;;5.17;4.77;;;6.80;60.30;;;;;;5080135;28;20670;-76
2021/03/07 11:25:16;;;;;;;4.30;4.00;;;6.90;59.80;;;;;;5085684;28;20609;-76
2021/03/07 11:27:41;;;;;;;4.23;3.80;;;6.90;59.30;;;;;;5084172;28;20660;-76
2021/03/07 11:30:08;;;;;;;4.90;4.40;;;7.10;59.70;;;;;;5086033;28;20790;-77
2021/03/07 11:32:34;;;;;;;5.00;4.50;;;7.10;59.70;;;;;;5085935;28;20186;-75
2021/03/07 11:34:59;;;;;;;4.70;4.20;;;7.30;59.80;;;;;;5085851;28;20450;-77
2021/03/07 11:37:25;;;;;;;4.33;3.93;;;7.40;59.30;;;;;;5086061;28;20252;-77
2021/03/07 11:39:50;;;;;;;5.67;5.17;;;7.50;58.90;;;;;;5084466;28;20185;-76
2021/03/07 11:42:16;;;;;;;4.30;3.90;;;7.60;58.20;;;;;;5086191;28;20220;-77
2021/03/07 11:44:41;;;;;;;4.67;4.17;;;7.70;57.50;;;;;;5085502;28;20223;-77
2021/03/07 11:47:07;;;;;;;4.70;4.30;;;7.90;59.00;;;;;;5067481;28;20208;-76
2021/03/07 11:49:33;;;;;;;3.80;3.43;;;7.90;58.10;;;;;;5086181;28;20229;-76
2021/03/07 11:51:59;;;;;;;4.60;4.20;;;8.00;56.80;;;;;;5087777;28;20186;-76
2021/03/07 11:54:24;;;;;;;5.23;4.73;;;8.20;57.30;;;;;;5090071;28;20185;-75
2021/03/07 11:56:50;;;;;;;5.57;5.00;;;8.30;57.90;;;;;;5087470;28;20560;-75
2021/03/07 11:59:15;;;;;;;4.27;3.97;;;8.30;58.10;;;;;;5071553;28;20205;-77
2021/03/07 12:01:41;;;;;;;4.83;4.43;;;8.70;58.20;;;;;;5070121;28;20191;-77
2021/03/07 12:04:06;;;;;;;5.10;4.40;;;9.40;55.70;;;;;;5089915;28;20614;-77
2021/03/07 12:06:32;;;;;;;5.10;4.50;;;10.10;55.40;;;;;;5089133;28;20571;-77
2021/03/07 12:08:57;;;;;;;4.60;4.20;;;10.60;54.80;;;;;;5065291;28;20212;-77
2021/03/07 12:11:23;;;;;;;5.03;4.40;;;11.20;53.20;;;;;;5071184;28;20262;-77
2021/03/07 12:13:49;;;;;;;5.40;5.00;;;11.40;53.80;;;;;;5069245;28;20653;-76
2021/03/07 12:16:14;;;;;;;4.50;4.10;;;12.30;53.60;;;;;;5089099;28;20265;-75
2021/03/07 12:18:41;;;;;;;4.60;4.20;;;12.70;51.80;;;;;;5088416;28;20204;-77
2021/03/07 12:21:08;;;;;;;5.23;4.80;;;13.00;51.70;;;;;;5081711;28;20584;-77
2021/03/07 12:23:34;;;;;;;4.93;4.47;;;13.40;50.60;;;;;;5087416;28;20439;-77
2021/03/07 12:26:00;;;;;;;5.50;5.03;;;13.20;48.30;;;;;;5070577;28;20455;-76
2021/03/07 12:28:26;;;;;;;5.07;4.73;;;13.20;47.70;;;;;;5079540;28;20537;-77
2021/03/07 12:30:51;;;;;;;5.13;4.40;;;13.10;48.10;;;;;;5085318;28;20325;-76
2021/03/07 12:33:17;;;;;;;4.97;4.57;;;13.00;48.20;;;;;;5089017;28;20550;-75
2021/03/07 12:35:43;;;;;;;5.80;5.30;;;13.30;48.60;;;;;;5088829;28;20582;-75
2021/03/07 12:38:09;;;;;;;5.43;5.03;;;13.40;46.80;;;;;;5088645;28;20296;-75
2021/03/07 12:40:35;;;;;;;4.57;4.17;;;13.90;47.30;;;;;;5086651;28;20215;-76
2021/03/07 12:43:00;;;;;;;4.87;4.57;;;14.40;44.80;;;;;;5070539;28;20177;-75
2021/03/07 12:45:26;;;;;;;4.60;4.20;;;14.30;44.20;;;;;;5088095;28;20226;-78
2021/03/07 12:47:51;;;;;;;4.87;4.47;;;14.20;43.60;;;;;;5088082;28;20211;-76
2021/03/07 12:50:17;;;;;;;4.20;3.90;;;14.20;43.90;;;;;;5088694;28;20234;-76
2021/03/07 12:52:42;;;;;;;5.50;5.10;;;14.60;44.90;;;;;;5089094;28;20256;-77
2021/03/07 12:55:08;;;;;;;5.70;5.20;;;15.00;43.50;;;;;;5088615;28;20563;-76
2021/03/07 12:57:34;;;;;;;4.60;4.20;;;14.70;42.60;;;;;;5067754;28;20567;-75
2021/03/07 13:00:00;;;;;;;4.90;4.50;;;14.70;43.20;;;;;;5089033;28;20252;-75
2021/03/07 13:02:26;;;;;;;4.73;4.33;;;15.20;42.60;;;;;;5086574;28;20423;-76